Time;durP1;ratioP1;P1;durP2;ratioP2;P2;SDS_P1;SDS_P2;PMS_P1;PMS_P2;Temp;Humidity;BMP_temperature;BMP_pressure;BME280_temperature;BME280_humidity;BME280_pressure;Samples;Min_cycle;Max_cycle;Signal;HPM_P1;HPM_P2
2022/07/30 00:00:54;;;;;;;10.98;7.00;;;;;;;;;;5026841;28;20525;-57
2022/07/30 00:03:20;;;;;;;14.88;6.63;;;;;;;;;;5024916;28;20081;-57
2022/07/30 00:05:45;;;;;;;9.15;6.40;;;;;;;;;;5028348;28;20513;-57
2022/07/30 00:08:11;;;;;;;10.63;5.75;;;;;;;;;;5025078;28;20032;-57
2022/07/30 00:10:37;;;;;;;14.00;6.45;;;;;;;;;;5028314;28;20025;-58
2022/07/30 00:13:03;;;;;;;12.98;6.70;;;;;;;;;;5026058;28;20034;-58
2022/07/30 00:15:28;;;;;;;10.23;6.28;;;;;;;;;;5026447;28;20103;-57
2022/07/30 00:17:54;;;;;;;8.63;6.45;;;;;;;;;;5024636;28;20406;-57
2022/07/30 00:20:19;;;;;;;8.80;6.22;;;;;;;;;;5026627;28;20399;-57
2022/07/30 00:22:45;;;;;;;9.15;6.03;;;;;;;;;;5026153;28;20104;-57
2022/07/30 00:25:11;;;;;;;9.65;6.60;;;;;;;;;;5027710;28;20112;-57
2022/07/30 00:27:37;;;;;;;10.75;6.65;;;;;;;;;;5026178;28;20445;-57
2022/07/30 00:30:03;;;;;;;9.40;6.50;;;;;;;;;;5025965;28;20026;-57
2022/07/30 00:32:29;;;;;;;10.95;6.60;;;;;;;;;;5026504;28;20056;-57
2022/07/30 00:34:54;;;;;;;8.98;6.57;;;;;;;;;;5026801;28;20025;-57
2022/07/30 00:37:20;;;;;;;8.65;7.10;;;;;;;;;;5026653;28;20032;-57
2022/07/30 00:39:46;;;;;;;9.50;6.68;;;;;;;;;;5022476;28;20543;-57
2022/07/30 00:42:11;;;;;;;9.30;6.28;;;;;;;;;;5025816;28;20033;-57
2022/07/30 00:44:37;;;;;;;8.98;6.18;;;;;;;;;;5027103;28;20067;-57
2022/07/30 00:47:02;;;;;;;8.88;6.13;;;;;;;;;;5024624;28;20025;-57
2022/07/30 00:49:28;;;;;;;10.27;6.35;;;;;;;;;;5025443;28;20037;-57
2022/07/30 00:51:53;;;;;;;8.82;6.32;;;;;;;;;;5026581;28;20056;-57
2022/07/30 00:54:20;;;;;;;9.75;6.20;;;;;;;;;;5027497;28;20076;-57
2022/07/30 00:56:46;;;;;;;9.73;6.38;;;;;;;;;;5028038;28;20029;-57
2022/07/30 00:59:12;;;;;;;8.95;6.45;;;;;;;;;;5027080;28;20048;-60
2022/07/30 01:01:38;;;;;;;9.20;6.50;;;;;;;;;;5026961;28;20570;-58
2022/07/30 01:04:06;;;;;;;9.52;6.22;;;;;;;;;;5026667;28;20511;-56
2022/07/30 01:06:32;;;;;;;9.67;6.30;;;;;;;;;;5028020;28;20180;-56
2022/07/30 01:08:58;;;;;;;10.88;6.20;;;;;;;;;;5024663;28;20553;-57
2022/07/30 01:11:27;;;;;;;7.45;5.78;;;;;;;;;;5023236;28;20076;-56
2022/07/30 01:13:53;;;;;;;8.18;5.85;;;;;;;;;;5025942;28;20025;-57
2022/07/30 01:16:18;;;;;;;8.88;5.63;;;;;;;;;;5027297;28;20028;-56
2022/07/30 01:21:39;;;;;;;9.13;6.43;;;;;;;;;;5025280;28;20508;-58
2022/07/30 01:24:21;;;;;;;7.88;6.28;;;;;;;;;;5027048;28;20100;-58
2022/07/30 01:26:48;;;;;;;7.93;6.32;;;;;;;;;;5024010;28;20037;-56
2022/07/30 01:29:15;;;;;;;8.15;6.50;;;;;;;;;;5027495;28;20076;-57
2022/07/30 01:31:43;;;;;;;9.55;6.40;;;;;;;;;;5026888;28;20029;-55
2022/07/30 01:34:13;;;;;;;9.95;6.35;;;;;;;;;;5026226;28;20025;-56
2022/07/30 01:36:41;;;;;;;6.68;5.97;;;;;;;;;;5022625;28;20021;-55
2022/07/30 01:39:07;;;;;;;10.50;6.18;;;;;;;;;;5026344;28;20062;-56
2022/07/30 01:41:34;;;;;;;10.95;6.72;;;;;;;;;;5024937;28;20075;-56
2022/07/30 01:44:00;;;;;;;8.45;6.30;;;;;;;;;;5027700;28;20164;-56
2022/07/30 01:46:27;;;;;;;8.15;6.00;;;;;;;;;;5024450;28;20571;-56
2022/07/30 01:48:54;;;;;;;12.10;6.65;;;;;;;;;;5026397;28;20317;-56
2022/07/30 01:51:20;;;;;;;8.50;6.80;;;;;;;;;;5026949;28;20554;-55
2022/07/30 01:53:48;;;;;;;11.35;6.93;;;;;;;;;;5027466;28;20113;-56
2022/07/30 01:56:14;;;;;;;11.65;6.63;;;;;;;;;;5026171;28;20069;-56
2022/07/30 01:58:41;;;;;;;7.28;6.47;;;;;;;;;;5026579;28;20029;-56
2022/07/30 02:01:06;;;;;;;9.73;6.63;;;;;;;;;;5026039;28;20033;-56
2022/07/30 02:03:33;;;;;;;14.73;7.00;;;;;;;;;;5026133;28;20045;-56
2022/07/30 02:06:04;;;;;;;8.95;6.88;;;;;;;;;;5025659;28;20024;-56
2022/07/30 02:08:39;;;;;;;7.90;7.10;;;;;;;;;;5024416;28;20033;-56
2022/07/30 02:11:14;;;;;;;8.90;6.30;;;;;;;;;;5024671;28;20026;-56
2022/07/30 02:13:55;;;;;;;9.00;7.35;;;;;;;;;;5020789;28;20032;-56
2022/07/30 02:16:26;;;;;;;8.50;6.38;;;;;;;;;;5022863;28;20037;-56
2022/07/30 02:19:01;;;;;;;14.43;6.75;;;;;;;;;;5024552;28;20033;-56
2022/07/30 02:21:33;;;;;;;9.43;7.18;;;;;;;;;;5024167;28;20140;-56
2022/07/30 02:24:01;;;;;;;10.95;6.82;;;;;;;;;;5023166;28;20022;-56
2022/07/30 02:26:28;;;;;;;8.75;6.72;;;;;;;;;;5025536;28;20072;-56
2022/07/30 02:28:57;;;;;;;12.07;7.63;;;;;;;;;;5024912;28;20172;-56
2022/07/30 02:31:24;;;;;;;10.13;7.20;;;;;;;;;;5023543;28;20029;-56
2022/07/30 02:33:55;;;;;;;11.32;7.28;;;;;;;;;;5024959;28;20036;-56
2022/07/30 02:36:22;;;;;;;8.82;6.75;;;;;;;;;;5025022;28;20026;-56
2022/07/30 02:38:49;;;;;;;8.73;7.18;;;;;;;;;;5027461;28;20033;-56
2022/07/30 02:41:16;;;;;;;9.05;7.03;;;;;;;;;;5027736;28;20119;-56
2022/07/30 02:43:42;;;;;;;11.75;6.78;;;;;;;;;;5027215;28;20028;-56
2022/07/30 02:46:10;;;;;;;10.77;7.40;;;;;;;;;;5028956;28;20458;-56
2022/07/30 02:48:38;;;;;;;10.48;7.10;;;;;;;;;;5029565;28;20030;-56
2022/07/30 02:51:06;;;;;;;13.63;7.07;;;;;;;;;;5030315;28;20411;-56
2022/07/30 02:53:33;;;;;;;10.07;7.18;;;;;;;;;;5028936;28;20284;-56
2022/07/30 02:56:00;;;;;;;12.52;7.50;;;;;;;;;;5029478;28;20186;-56
2022/07/30 02:58:28;;;;;;;11.60;8.15;;;;;;;;;;5028724;28;20037;-57
2022/07/30 03:00:54;;;;;;;11.50;7.82;;;;;;;;;;5028072;28;20493;-56
2022/07/30 03:03:20;;;;;;;10.40;7.97;;;;;;;;;;5029195;28;20495;-56
2022/07/30 03:05:50;;;;;;;10.23;7.10;;;;;;;;;;5029316;28;20022;-56
2022/07/30 03:08:16;;;;;;;;;;;;;;;;;;5028000;28;20399;-56
2022/07/30 03:10:43;;;;;;;9.30;7.15;;;;;;;;;;5027282;28;19913;-56
2022/07/30 03:13:11;;;;;;;9.70;7.53;;;;;;;;;;5025112;28;20530;-56
2022/07/30 03:15:42;;;;;;;9.93;7.55;;;;;;;;;;5029175;28;20053;-56
2022/07/30 03:18:11;;;;;;;11.13;8.00;;;;;;;;;;5027321;28;20111;-57
2022/07/30 03:20:38;;;;;;;10.70;7.55;;;;;;;;;;5024475;28;20030;-58
2022/07/30 03:23:05;;;;;;;11.52;7.20;;;;;;;;;;5027338;28;20037;-58
2022/07/30 03:25:32;;;;;;;12.32;8.40;;;;;;;;;;5028693;28;20037;-58
2022/07/30 03:27:59;;;;;;;11.18;8.40;;;;;;;;;;5027475;28;20044;-57
2022/07/30 03:30:25;;;;;;;11.85;7.82;;;;;;;;;;5028022;28;20120;-56
2022/07/30 03:32:52;;;;;;;12.07;7.47;;;;;;;;;;5024605;28;20395;-55
2022/07/30 03:35:20;;;;;;;10.27;7.88;;;;;;;;;;5028211;28;20074;-56
2022/07/30 03:37:47;;;;;;;12.40;7.53;;;;;;;;;;5027733;28;20335;-57
2022/07/30 03:40:12;;;;;;;10.80;7.78;;;;;;;;;;5028595;28;20049;-56
2022/07/30 03:42:38;;;;;;;11.25;8.35;;;;;;;;;;5025670;28;20079;-56
2022/07/30 03:45:06;;;;;;;9.55;7.53;;;;;;;;;;5028266;28;20068;-56
2022/07/30 03:47:35;;;;;;;12.75;8.65;;;;;;;;;;5030739;28;20021;-56
2022/07/30 03:50:00;;;;;;;9.50;7.95;;;;;;;;;;5028575;28;20016;-57
2022/07/30 03:52:26;;;;;;;9.23;7.93;;;;;;;;;;5026454;28;20030;-56
2022/07/30 03:54:52;;;;;;;10.77;8.00;;;;;;;;;;5027552;28;20044;-56
2022/07/30 03:57:18;;;;;;;9.90;7.72;;;;;;;;;;5029328;28;20383;-56
2022/07/30 03:59:45;;;;;;;11.27;8.00;;;;;;;;;;5027533;28;20025;-58
2022/07/30 04:02:11;;;;;;;10.25;7.78;;;;;;;;;;5025393;28;20029;-56
2022/07/30 04:04:41;;;;;;;15.98;7.97;;;;;;;;;;5029922;28;20410;-55
2022/07/30 04:07:07;;;;;;;11.00;8.27;;;;;;;;;;5027545;28;20037;-56
2022/07/30 04:09:32;;;;;;;11.98;8.48;;;;;;;;;;5029397;28;20079;-56
2022/07/30 04:11:58;;;;;;;9.82;8.25;;;;;;;;;;5027645;28;20032;-56
2022/07/30 04:14:23;;;;;;;9.85;8.15;;;;;;;;;;5026936;28;20487;-56
2022/07/30 04:17:05;;;;;;;11.88;8.00;;;;;;;;;;5027549;28;20079;-55
2022/07/30 04:19:37;;;;;;;13.40;10.35;;;;;;;;;;5027299;28;20029;-56
2022/07/30 04:22:04;;;;;;;11.77;9.23;;;;;;;;;;5023304;28;20068;-56
2022/07/30 04:24:31;;;;;;;11.73;9.20;;;;;;;;;;5026508;28;20029;-55
2022/07/30 04:26:59;;;;;;;14.93;9.43;;;;;;;;;;5028298;28;20080;-56
2022/07/30 04:29:24;;;;;;;15.63;9.07;;;;;;;;;;5026943;28;20032;-55
2022/07/30 04:31:51;;;;;;;12.70;9.98;;;;;;;;;;5023954;28;20029;-56
2022/07/30 04:34:16;;;;;;;13.90;8.90;;;;;;;;;;5026610;28;20025;-56
2022/07/30 04:36:42;;;;;;;12.68;9.50;;;;;;;;;;5027981;28;20025;-56
2022/07/30 04:39:08;;;;;;;15.48;9.90;;;;;;;;;;5027205;28;20036;-56
2022/07/30 04:41:34;;;;;;;18.58;10.93;;;;;;;;;;5024452;28;20041;-56
2022/07/30 04:44:00;;;;;;;16.67;9.63;;;;;;;;;;5027507;28;20025;-56
2022/07/30 04:46:25;;;;;;;12.85;9.52;;;;;;;;;;5027882;28;20188;-56
2022/07/30 04:48:51;;;;;;;12.35;8.82;;;;;;;;;;5029451;28;20096;-56
2022/07/30 04:51:24;;;;;;;20.98;9.98;;;;;;;;;;5026815;28;20049;-55
2022/07/30 04:53:51;;;;;;;13.75;8.77;;;;;;;;;;5025297;28;20026;-56
2022/07/30 04:56:18;;;;;;;19.02;9.68;;;;;;;;;;5029364;28;20430;-56
2022/07/30 04:58:44;;;;;;;12.25;9.52;;;;;;;;;;5026652;28;20056;-56
2022/07/30 05:01:11;;;;;;;16.05;9.95;;;;;;;;;;5023018;28;20107;-55
2022/07/30 05:03:37;;;;;;;16.88;10.25;;;;;;;;;;5028286;28;20029;-56
2022/07/30 05:06:04;;;;;;;14.32;9.43;;;;;;;;;;5026235;28;20495;-57
2022/07/30 05:08:30;;;;;;;15.88;9.90;;;;;;;;;;5024704;28;20509;-57
2022/07/30 05:10:55;;;;;;;13.55;9.65;;;;;;;;;;5024048;28;20100;-57
2022/07/30 05:13:21;;;;;;;17.92;10.20;;;;;;;;;;5024652;28;20466;-57
2022/07/30 05:15:47;;;;;;;14.05;9.90;;;;;;;;;;5027149;28;20033;-57
2022/07/30 05:18:13;;;;;;;13.82;10.18;;;;;;;;;;5023338;28;20084;-57
2022/07/30 05:20:38;;;;;;;13.70;10.00;;;;;;;;;;5024612;28;20025;-58
2022/07/30 05:23:04;;;;;;;14.68;9.73;;;;;;;;;;5023452;28;20025;-57
2022/07/30 05:25:30;;;;;;;15.35;9.93;;;;;;;;;;5026561;28;20033;-57
2022/07/30 05:27:56;;;;;;;13.50;10.05;;;;;;;;;;5025948;28;20566;-57
2022/07/30 05:30:23;;;;;;;17.10;9.95;;;;;;;;;;5026914;28;20022;-57
2022/07/30 05:32:48;;;;;;;15.90;10.40;;;;;;;;;;5021106;28;20495;-57
2022/07/30 05:35:14;;;;;;;14.02;9.60;;;;;;;;;;5027542;28;20200;-58
2022/07/30 05:37:39;;;;;;;12.48;10.20;;;;;;;;;;5026292;28;20093;-57
2022/07/30 05:40:05;;;;;;;13.63;9.65;;;;;;;;;;5027326;28;20038;-57
2022/07/30 05:42:30;;;;;;;15.98;10.73;;;;;;;;;;5024087;28;20092;-57
2022/07/30 05:44:56;;;;;;;17.65;10.32;;;;;;;;;;5026034;28;20026;-57
2022/07/30 05:47:21;;;;;;;15.10;10.55;;;;;;;;;;5027230;28;20507;-57
2022/07/30 05:49:47;;;;;;;13.82;9.77;;;;;;;;;;5028676;28;20551;-57
2022/07/30 05:52:12;;;;;;;17.45;10.77;;;;;;;;;;5025662;28;20033;-57
2022/07/30 05:54:38;;;;;;;14.23;11.10;;;;;;;;;;5027250;28;20029;-58
2022/07/30 05:57:03;;;;;;;15.02;10.57;;;;;;;;;;5031075;28;20053;-57
2022/07/30 05:59:29;;;;;;;13.85;10.25;;;;;;;;;;5027544;28;20518;-57
2022/07/30 06:01:54;;;;;;;15.48;9.90;;;;;;;;;;5026637;28;20038;-57
2022/07/30 06:04:19;;;;;;;16.58;10.02;;;;;;;;;;5023447;28;20146;-57
2022/07/30 06:06:45;;;;;;;14.20;9.70;;;;;;;;;;5025622;28;20028;-57
2022/07/30 06:09:10;;;;;;;15.90;10.00;;;;;;;;;;5026764;28;20067;-57
2022/07/30 06:11:36;;;;;;;14.55;9.55;;;;;;;;;;5025728;28;20403;-58
2022/07/30 06:14:01;;;;;;;16.55;10.13;;;;;;;;;;5021769;28;20092;-58
2022/07/30 06:16:27;;;;;;;12.23;8.98;;;;;;;;;;5024833;28;20026;-58
2022/07/30 06:18:52;;;;;;;11.85;9.02;;;;;;;;;;5023262;28;20025;-57
2022/07/30 06:21:17;;;;;;;16.17;9.27;;;;;;;;;;5024814;28;20367;-53
2022/07/30 06:23:43;;;;;;;9.00;8.02;;;;;;;;;;5023616;28;20026;-51
2022/07/30 06:26:08;;;;;;;12.27;8.90;;;;;;;;;;5029306;28;20037;-51
2022/07/30 06:28:34;;;;;;;13.90;9.25;;;;;;;;;;5026894;28;20017;-53
2022/07/30 06:30:59;;;;;;;13.70;9.60;;;;;;;;;;5024565;28;20388;-53
2022/07/30 06:33:24;;;;;;;11.85;8.35;;;;;;;;;;5026406;28;20044;-52
2022/07/30 06:35:50;;;;;;;11.48;8.23;;;;;;;;;;5023206;28;20056;-52
2022/07/30 06:38:15;;;;;;;10.43;7.47;;;;;;;;;;5022045;28;20040;-53
2022/07/30 06:40:41;;;;;;;11.50;7.95;;;;;;;;;;5025038;28;20022;-53
2022/07/30 06:43:06;;;;;;;13.57;9.18;;;;;;;;;;5025163;28;20033;-53
2022/07/30 06:45:32;;;;;;;11.93;8.73;;;;;;;;;;5026013;28;20029;-53
2022/07/30 06:47:58;;;;;;;12.88;9.02;;;;;;;;;;5026716;28;20048;-53
2022/07/30 06:50:23;;;;;;;15.80;8.15;;;;;;;;;;5025864;28;20025;-54
2022/07/30 06:52:49;;;;;;;14.23;7.68;;;;;;;;;;5025298;28;20060;-53
2022/07/30 06:55:14;;;;;;;12.25;7.80;;;;;;;;;;5024636;28;20040;-54
2022/07/30 06:57:40;;;;;;;11.05;7.93;;;;;;;;;;5025557;28;20469;-54
2022/07/30 07:00:06;;;;;;;11.43;7.47;;;;;;;;;;5027169;28;20025;-54
2022/07/30 07:02:32;;;;;;;12.40;7.75;;;;;;;;;;5024761;28;20110;-54
2022/07/30 07:04:57;;;;;;;11.10;8.25;;;;;;;;;;5024662;28;20049;-56
2022/07/30 07:07:22;;;;;;;12.95;7.60;;;;;;;;;;5025710;28;20036;-52
2022/07/30 07:09:48;;;;;;;18.95;8.27;;;;;;;;;;5025028;28;20101;-55
2022/07/30 07:12:13;;;;;;;13.35;7.97;;;;;;;;;;5024114;28;20025;-55
2022/07/30 07:14:39;;;;;;;10.95;8.05;;;;;;;;;;5024445;28;20076;-56
2022/07/30 07:17:04;;;;;;;13.15;7.53;;;;;;;;;;5021916;28;20049;-56
2022/07/30 07:19:29;;;;;;;12.70;7.60;;;;;;;;;;5023376;28;20032;-56
2022/07/30 07:21:55;;;;;;;16.23;10.10;;;;;;;;;;5024166;28;20380;-56
2022/07/30 07:24:20;;;;;;;11.18;8.43;;;;;;;;;;5025784;28;20560;-54
2022/07/30 07:26:45;;;;;;;14.43;7.78;;;;;;;;;;5024894;28;20030;-58
2022/07/30 07:29:11;;;;;;;10.68;7.55;;;;;;;;;;5025375;28;20132;-59
2022/07/30 07:31:36;;;;;;;16.70;8.43;;;;;;;;;;5027300;28;20577;-57
2022/07/30 07:34:02;;;;;;;14.80;9.45;;;;;;;;;;5027784;28;20029;-57
2022/07/30 07:36:27;;;;;;;18.08;11.15;;;;;;;;;;5026115;28;20029;-57
2022/07/30 07:38:53;;;;;;;16.25;10.25;;;;;;;;;;5027858;28;20036;-57
2022/07/30 07:41:18;;;;;;;18.17;11.77;;;;;;;;;;5026431;28;20046;-57
2022/07/30 07:43:44;;;;;;;15.68;9.95;;;;;;;;;;5026960;28;20109;-58
2022/07/30 07:46:11;;;;;;;13.82;9.55;;;;;;;;;;5030893;28;20274;-57
2022/07/30 07:48:38;;;;;;;16.58;10.15;;;;;;;;;;5028114;28;20167;-57
2022/07/30 07:51:03;;;;;;;16.55;10.98;;;;;;;;;;5029023;28;20034;-57
2022/07/30 07:53:29;;;;;;;15.75;11.30;;;;;;;;;;5028510;28;20503;-57
2022/07/30 07:55:54;;;;;;;16.98;11.15;;;;;;;;;;5027063;28;20057;-58
2022/07/30 07:58:20;;;;;;;16.25;10.07;;;;;;;;;;5024598;28;20030;-57
2022/07/30 08:00:45;;;;;;;14.00;10.13;;;;;;;;;;5027816;28;20037;-56
2022/07/30 08:03:10;;;;;;;14.93;10.75;;;;;;;;;;5028524;28;20037;-57
2022/07/30 08:05:36;;;;;;;19.98;12.75;;;;;;;;;;5027234;28;20060;-57
2022/07/30 08:08:01;;;;;;;14.02;10.07;;;;;;;;;;5024641;28;20041;-57
2022/07/30 08:10:27;;;;;;;16.25;12.00;;;;;;;;;;5024488;28;20033;-59
2022/07/30 08:12:52;;;;;;;15.05;9.43;;;;;;;;;;5027564;28;20199;-58
2022/07/30 08:15:19;;;;;;;17.67;9.73;;;;;;;;;;5027905;28;20120;-57
2022/07/30 08:17:46;;;;;;;15.07;10.15;;;;;;;;;;5026652;28;20461;-57
2022/07/30 08:20:12;;;;;;;13.63;9.82;;;;;;;;;;5024076;28;20041;-57
2022/07/30 08:22:38;;;;;;;18.33;12.13;;;;;;;;;;5026893;28;20034;-57
2022/07/30 08:25:04;;;;;;;15.38;10.57;;;;;;;;;;5028280;28;20032;-58
2022/07/30 08:27:29;;;;;;;15.00;9.85;;;;;;;;;;5027422;28;20454;-57
2022/07/30 08:29:55;;;;;;;13.98;9.95;;;;;;;;;;5024523;28;20087;-57
2022/07/30 08:32:20;;;;;;;16.20;9.82;;;;;;;;;;5024871;28;20033;-57
2022/07/30 08:34:46;;;;;;;11.90;9.68;;;;;;;;;;5026923;28;20021;-57
2022/07/30 08:37:11;;;;;;;14.63;9.25;;;;;;;;;;5027437;28;20033;-57
2022/07/30 08:39:37;;;;;;;16.85;9.45;;;;;;;;;;5024559;28;20566;-57
2022/07/30 08:42:03;;;;;;;13.88;9.50;;;;;;;;;;5029385;28;20111;-57
2022/07/30 08:44:29;;;;;;;18.48;9.77;;;;;;;;;;5028942;28;20080;-56
2022/07/30 08:46:56;;;;;;;13.55;9.25;;;;;;;;;;5028305;28;20113;-57
2022/07/30 08:49:22;;;;;;;15.27;12.18;;;;;;;;;;5026510;28;20527;-56
2022/07/30 08:51:49;;;;;;;15.27;11.20;;;;;;;;;;5026449;28;20399;-57
2022/07/30 08:54:15;;;;;;;12.13;9.05;;;;;;;;;;5027318;28;20108;-57
2022/07/30 08:56:40;;;;;;;12.77;9.57;;;;;;;;;;5027904;28;20048;-57
2022/07/30 08:59:06;;;;;;;13.25;8.40;;;;;;;;;;5023765;28;20380;-57
2022/07/30 09:01:32;;;;;;;12.98;8.65;;;;;;;;;;5024596;28;20021;-57
2022/07/30 09:03:57;;;;;;;15.95;8.93;;;;;;;;;;5026252;28;20052;-58
2022/07/30 09:06:23;;;;;;;11.75;8.38;;;;;;;;;;5026908;28;20483;-58
2022/07/30 09:08:48;;;;;;;13.32;7.88;;;;;;;;;;5023951;28;20054;-58
2022/07/30 09:11:14;;;;;;;10.75;7.75;;;;;;;;;;5052315;28;20559;-58
2022/07/30 09:13:41;;;;;;;13.93;9.02;;;;;;;;;;5025756;28;20349;-58
2022/07/30 09:16:16;;;;;;;9.93;7.97;;;;;;;;;;5026212;28;20025;-57
2022/07/30 09:18:43;;;;;;;11.02;7.72;;;;;;;;;;5023393;28;20530;-57
2022/07/30 09:21:20;;;;;;;11.27;7.90;;;;;;;;;;5026438;28;20029;-57
2022/07/30 09:24:05;;;;;;;10.15;7.15;;;;;;;;;;5025356;28;20392;-57
2022/07/30 09:26:32;;;;;;;10.63;7.25;;;;;;;;;;5023107;28;20552;-57
2022/07/30 09:29:19;;;;;;;9.68;6.90;;;;;;;;;;5024256;28;20021;-57
2022/07/30 09:31:56;;;;;;;13.52;6.43;;;;;;;;;;5026348;28;20130;-57
2022/07/30 09:34:23;;;;;;;10.70;6.47;;;;;;;;;;5024518;28;20025;-58
2022/07/30 09:36:48;;;;;;;7.63;6.15;;;;;;;;;;5024108;28;20030;-58
2022/07/30 09:39:14;;;;;;;7.28;6.25;;;;;;;;;;5025405;28;20545;-59
2022/07/30 09:41:40;;;;;;;13.85;7.47;;;;;;;;;;5028081;28;20034;-58
2022/07/30 09:44:06;;;;;;;12.02;5.93;;;;;;;;;;5027033;28;20075;-59
2022/07/30 09:46:46;;;;;;;8.45;6.10;;;;;;;;;;5025847;28;20025;-58
2022/07/30 09:49:20;;;;;;;8.50;6.05;;;;;;;;;;5022716;28;20030;-58
2022/07/30 09:51:46;;;;;;;7.97;5.75;;;;;;;;;;5025950;28;20111;-58
2022/07/30 09:54:12;;;;;;;7.47;5.55;;;;;;;;;;5029134;28;20654;-58
2022/07/30 09:56:38;;;;;;;6.75;5.57;;;;;;;;;;5023825;28;20057;-58
2022/07/30 09:59:05;;;;;;;9.73;5.40;;;;;;;;;;5024347;28;20427;-58
2022/07/30 10:01:49;;;;;;;9.68;5.82;;;;;;;;;;5024611;28;20120;-58
2022/07/30 10:04:27;;;;;;;11.55;5.47;;;;;;;;;;5030913;28;20020;-58
2022/07/30 10:06:53;;;;;;;6.78;4.93;;;;;;;;;;5019356;28;20036;-58
2022/07/30 10:09:32;;;;;;;6.18;4.85;;;;;;;;;;5025270;28;20421;-58
2022/07/30 10:12:02;;;;;;;7.15;4.45;;;;;;;;;;5020691;28;20026;-58
2022/07/30 10:14:32;;;;;;;7.57;5.20;;;;;;;;;;5021983;28;20045;-58
2022/07/30 10:16:59;;;;;;;5.55;4.47;;;;;;;;;;5026285;28;20029;-58
2022/07/30 10:19:24;;;;;;;6.72;4.15;;;;;;;;;;5025602;28;20029;-58
2022/07/30 10:21:52;;;;;;;6.68;4.28;;;;;;;;;;5021280;28;20029;-58
2022/07/30 10:24:18;;;;;;;5.70;4.22;;;;;;;;;;5024911;28;20064;-58
2022/07/30 10:26:45;;;;;;;4.53;3.85;;;;;;;;;;5025512;28;20490;-58
2022/07/30 10:29:11;;;;;;;6.20;4.50;;;;;;;;;;5024834;28;20475;-58
2022/07/30 10:31:37;;;;;;;6.45;4.00;;;;;;;;;;5022180;28;20119;-58
2022/07/30 10:34:03;;;;;;;6.80;4.63;;;;;;;;;;5023138;28;20029;-58
2022/07/30 10:36:29;;;;;;;7.50;3.97;;;;;;;;;;5024881;28;20079;-59
2022/07/30 10:38:55;;;;;;;5.90;4.07;;;;;;;;;;5025999;28;20030;-58
2022/07/30 10:41:33;;;;;;;5.45;3.75;;;;;;;;;;5024717;28;20376;-58
2022/07/30 10:44:20;;;;;;;7.88;4.30;;;;;;;;;;5024982;28;20044;-59
2022/07/30 10:47:04;;;;;;;5.07;4.10;;;;;;;;;;5020700;28;20564;-58
2022/07/30 10:49:30;;;;;;;6.30;4.00;;;;;;;;;;5026477;28;20030;-58
2022/07/30 10:51:56;;;;;;;6.20;4.25;;;;;;;;;;5031605;28;20506;-58
2022/07/30 10:54:33;;;;;;;8.68;4.63;;;;;;;;;;5024180;28;20056;-58
2022/07/30 10:57:19;;;;;;;4.32;3.63;;;;;;;;;;5024834;28;20029;-58
2022/07/30 10:59:59;;;;;;;4.85;3.78;;;;;;;;;;5028109;28;20060;-58
2022/07/30 11:02:27;;;;;;;3.83;3.40;;;;;;;;;;5027526;28;20033;-58
2022/07/30 11:05:17;;;;;;;3.67;3.33;;;;;;;;;;5030098;28;20112;-59
2022/07/30 11:07:43;;;;;;;7.55;3.70;;;;;;;;;;5029565;28;20017;-59
2022/07/30 11:10:39;;;;;;;6.18;3.63;;;;;;;;;;5028042;28;20475;-58
2022/07/30 11:13:08;;;;;;;4.20;3.60;;;;;;;;;;5050357;28;20041;-59
2022/07/30 11:15:56;;;;;;;4.65;3.20;;;;;;;;;;5027625;28;20032;-59
2022/07/30 11:18:23;;;;;;;4.85;3.42;;;;;;;;;;5032936;28;20032;-59
2022/07/30 11:21:14;;;;;;;4.47;3.30;;;;;;;;;;5032809;28;20318;-58
2022/07/30 11:23:39;;;;;;;6.35;3.35;;;;;;;;;;5022142;28;20029;-59
2022/07/30 11:26:05;;;;;;;4.35;3.13;;;;;;;;;;5029615;28;20407;-59
2022/07/30 11:28:41;;;;;;;4.43;2.95;;;;;;;;;;5025052;28;20121;-59
2022/07/30 11:31:32;;;;;;;6.38;3.10;;;;;;;;;;5026536;28;20045;-59
2022/07/30 11:34:19;;;;;;;3.65;2.95;;;;;;;;;;5023634;28;20420;-59
2022/07/30 11:37:06;;;;;;;6.50;3.00;;;;;;;;;;5025471;28;20029;-59
2022/07/30 11:39:56;;;;;;;5.30;3.30;;;;;;;;;;5030015;28;20140;-59
2022/07/30 11:42:26;;;;;;;4.82;3.13;;;;;;;;;;5027282;28;20029;-59
2022/07/30 11:44:52;;;;;;;5.28;3.20;;;;;;;;;;5028502;28;20112;-59
2022/07/30 11:47:18;;;;;;;5.10;3.30;;;;;;;;;;5029448;28;20517;-59
2022/07/30 11:49:47;;;;;;;8.20;3.42;;;;;;;;;;5028858;28;20029;-59
2022/07/30 11:52:21;;;;;;;7.05;3.03;;;;;;;;;;5025724;28;20353;-59
2022/07/30 11:54:53;;;;;;;6.63;3.03;;;;;;;;;;5027789;28;20033;-59
2022/07/30 11:57:19;;;;;;;4.88;3.00;;;;;;;;;;5028320;28;20112;-59
2022/07/30 11:59:55;;;;;;;4.78;3.00;;;;;;;;;;5028723;28;20598;-59
2022/07/30 12:02:26;;;;;;;4.38;3.40;;;;;;;;;;5025748;28;20056;-59
2022/07/30 12:04:51;;;;;;;6.53;3.20;;;;;;;;;;5027881;28;20033;-59
2022/07/30 12:07:23;;;;;;;6.95;3.00;;;;;;;;;;5026935;28;20025;-59
2022/07/30 12:09:48;;;;;;;5.75;3.40;;;;;;;;;;5024554;28;20475;-59
2022/07/30 12:12:23;;;;;;;8.63;3.03;;;;;;;;;;5025365;28;20048;-59
2022/07/30 12:14:48;;;;;;;7.03;3.45;;;;;;;;;;5027201;28;20374;-59
2022/07/30 12:17:14;;;;;;;6.95;3.15;;;;;;;;;;5027627;28;20044;-59
2022/07/30 12:19:46;;;;;;;4.00;3.13;;;;;;;;;;5026525;28;20034;-59
2022/07/30 12:22:12;;;;;;;3.22;2.78;;;;;;;;;;5025757;28;20040;-59
2022/07/30 12:24:37;;;;;;;5.25;3.05;;;;;;;;;;5027807;28;20022;-59
2022/07/30 12:27:05;;;;;;;5.03;3.15;;;;;;;;;;5028086;28;20084;-59
2022/07/30 12:29:31;;;;;;;4.13;2.72;;;;;;;;;;5029288;28;20033;-59
2022/07/30 12:31:56;;;;;;;4.75;3.15;;;;;;;;;;5024613;28;20512;-59
2022/07/30 12:34:25;;;;;;;4.80;3.10;;;;;;;;;;5026518;28;20094;-59
2022/07/30 12:36:50;;;;;;;3.03;2.80;;;;;;;;;;5027057;28;20434;-59
2022/07/30 12:39:20;;;;;;;5.70;3.30;;;;;;;;;;5028179;28;20116;-59
2022/07/30 12:41:48;;;;;;;4.68;2.85;;;;;;;;;;5027226;28;20025;-59
2022/07/30 12:44:43;;;;;;;7.15;3.15;;;;;;;;;;5026375;28;20033;-60
2022/07/30 12:47:26;;;;;;;3.95;2.65;;;;;;;;;;5028661;28;20083;-59
2022/07/30 12:49:52;;;;;;;5.03;2.83;;;;;;;;;;5019749;28;20101;-57
2022/07/30 12:52:22;;;;;;;3.15;2.55;;;;;;;;;;5028595;28;20526;-57
2022/07/30 12:55:08;;;;;;;3.13;2.50;;;;;;;;;;5026629;28;20125;-57
2022/07/30 12:58:01;;;;;;;6.90;2.63;;;;;;;;;;5025065;28;20071;-57
2022/07/30 13:00:31;;;;;;;5.50;2.75;;;;;;;;;;5025401;28;20031;-57
2022/07/30 13:02:57;;;;;;;4.50;2.70;;;;;;;;;;5021464;28;20495;-58
2022/07/30 13:06:10;;;;;;;3.03;2.70;;;;;;;;;;5024097;28;20068;-58
2022/07/30 13:08:44;;;;;;;6.38;2.47;;;;;;;;;;4992931;28;20527;-59
2022/07/30 13:11:09;;;;;;;3.08;2.45;;;;;;;;;;4982481;28;20086;-58
2022/07/30 13:13:35;;;;;;;4.47;2.80;;;;;;;;;;5008091;28;20045;-59
2022/07/30 13:16:03;;;;;;;4.50;2.95;;;;;;;;;;5028430;28;20032;-58
2022/07/30 13:18:29;;;;;;;5.63;2.40;;;;;;;;;;5025264;28;20090;-58
2022/07/30 13:20:55;;;;;;;5.72;2.65;;;;;;;;;;5023820;28;20109;-59
2022/07/30 13:23:22;;;;;;;4.32;2.50;;;;;;;;;;5024154;28;20517;-58
2022/07/30 13:25:47;;;;;;;3.35;2.53;;;;;;;;;;5025204;28;20033;-59
2022/07/30 13:28:13;;;;;;;3.25;2.33;;;;;;;;;;5024212;28;20487;-58
2022/07/30 13:30:39;;;;;;;2.70;2.38;;;;;;;;;;5026238;28;20029;-58
2022/07/30 13:33:04;;;;;;;3.75;2.05;;;;;;;;;;5022729;28;20322;-58
2022/07/30 13:35:30;;;;;;;2.85;2.47;;;;;;;;;;5024639;28;20538;-58
2022/07/30 13:37:56;;;;;;;3.20;2.20;;;;;;;;;;5028223;28;20033;-58
2022/07/30 13:40:21;;;;;;;2.53;2.28;;;;;;;;;;5027581;28;20129;-57
2022/07/30 13:42:47;;;;;;;5.53;2.67;;;;;;;;;;5025955;28;20522;-58
2022/07/30 13:45:12;;;;;;;3.30;2.25;;;;;;;;;;5026071;28;20463;-58
2022/07/30 13:47:37;;;;;;;3.72;2.30;;;;;;;;;;5025653;28;20025;-58
2022/07/30 13:50:03;;;;;;;3.33;2.50;;;;;;;;;;5030021;28;20475;-58
2022/07/30 13:52:29;;;;;;;7.03;2.42;;;;;;;;;;5024701;28;20029;-58
2022/07/30 13:54:54;;;;;;;3.17;2.38;;;;;;;;;;5025289;28;20044;-57
2022/07/30 13:57:19;;;;;;;3.30;2.60;;;;;;;;;;5025047;28;20068;-58
2022/07/30 13:59:45;;;;;;;3.60;2.90;;;;;;;;;;5018190;28;20033;-58
2022/07/30 14:02:10;;;;;;;2.67;2.10;;;;;;;;;;5023278;28;20446;-58
2022/07/30 14:04:36;;;;;;;5.03;2.20;;;;;;;;;;5024808;28;20033;-58
2022/07/30 14:07:01;;;;;;;2.70;2.10;;;;;;;;;;5024093;28;20029;-58
2022/07/30 14:09:27;;;;;;;4.03;2.33;;;;;;;;;;5025244;28;20025;-58
2022/07/30 14:11:52;;;;;;;2.88;2.13;;;;;;;;;;5021652;28;20033;-58
2022/07/30 14:14:18;;;;;;;3.08;2.50;;;;;;;;;;5025426;28;20022;-58
2022/07/30 14:16:45;;;;;;;3.67;2.17;;;;;;;;;;5024037;28;20064;-58
2022/07/30 14:19:12;;;;;;;3.47;2.30;;;;;;;;;;5024877;28;20483;-58
2022/07/30 14:21:39;;;;;;;3.75;2.28;;;;;;;;;;5022729;28;20048;-59
2022/07/30 14:24:05;;;;;;;4.40;2.40;;;;;;;;;;5025050;28;20116;-58
2022/07/30 14:26:30;;;;;;;3.25;2.40;;;;;;;;;;5025198;28;20041;-58
2022/07/30 14:28:56;;;;;;;3.97;2.60;;;;;;;;;;5024772;28;20112;-59
2022/07/30 14:31:21;;;;;;;4.05;2.30;;;;;;;;;;5023947;28;20490;-58
2022/07/30 14:33:46;;;;;;;4.20;2.47;;;;;;;;;;5024523;28;20022;-58
2022/07/30 14:36:12;;;;;;;3.70;2.63;;;;;;;;;;5030022;28;20075;-58
2022/07/30 14:38:38;;;;;;;5.72;2.42;;;;;;;;;;5030720;28;20170;-59
2022/07/30 14:41:05;;;;;;;4.18;2.50;;;;;;;;;;5030245;28;20033;-58
2022/07/30 14:43:31;;;;;;;3.30;2.47;;;;;;;;;;5029026;28;20079;-58